createdAt,value
2023-02-22T00:02:14.036Z,83.25
2023-02-22T00:04:41.750Z,83.79
2023-02-22T00:07:09.073Z,82.10
2023-02-22T00:09:36.620Z,80.84
2023-02-22T00:12:03.983Z,80.44
2023-02-22T00:14:31.559Z,79.43
2023-02-22T00:16:59.907Z,76.87
2023-02-22T00:19:31.056Z,78.06
2023-02-22T00:21:58.491Z,76.71
2023-02-22T00:24:26.405Z,76.66
2023-02-22T00:26:55.748Z,76.80
2023-02-22T00:29:25.016Z,76.22
2023-02-22T00:31:52.590Z,75.36
2023-02-22T00:34:20.299Z,74.93
2023-02-22T00:36:49.180Z,73.44
2023-02-22T00:39:16.994Z,73.71
2023-02-22T00:41:44.509Z,74.06
2023-02-22T00:44:12.328Z,73.59
2023-02-22T00:46:40.168Z,72.95
2023-02-22T00:49:08.012Z,73.28
2023-02-22T00:51:35.340Z,74.71
2023-02-22T00:54:03.418Z,73.96
2023-02-22T00:56:32.598Z,74.08
2023-02-22T00:59:03.647Z,74.11
2023-02-22T01:01:31.560Z,74.78
2023-02-22T01:03:59.266Z,74.11
2023-02-22T01:06:26.721Z,74.30
2023-02-22T01:08:54.215Z,73.12
2023-02-22T01:11:22.462Z,74.05
2023-02-22T01:13:50.017Z,73.83
2023-02-22T01:16:17.332Z,73.16
2023-02-22T01:18:44.951Z,73.17
2023-02-22T01:21:12.443Z,73.25
2023-02-22T01:23:45.397Z,74.47
2023-02-22T01:26:13.046Z,74.09
2023-02-22T01:28:40.547Z,74.35
2023-02-22T01:31:07.794Z,73.86
2023-02-22T01:33:35.388Z,73.85
2023-02-22T01:36:03.780Z,74.38
2023-02-22T01:38:31.300Z,75.08
2023-02-22T01:40:58.631Z,75.53
2023-02-22T01:43:32.664Z,76.03
2023-02-22T01:46:21.033Z,74.59
2023-02-22T01:48:56.386Z,74.83
2023-02-22T01:51:37.570Z,75.44
2023-02-22T01:54:25.488Z,76.07
2023-02-22T01:57:19.629Z,76.22
2023-02-22T01:59:50.820Z,76.54
2023-02-22T02:02:21.732Z,76.50
2023-02-22T02:04:49.613Z,77.01
2023-02-22T02:07:21.217Z,77.60
2023-02-22T02:09:59.101Z,77.54
2023-02-22T02:12:29.757Z,77.49
2023-02-22T02:15:17.999Z,76.65
2023-02-22T02:17:46.503Z,75.67
2023-02-22T02:20:21.295Z,76.56
2023-02-22T02:23:00.992Z,75.83
2023-02-22T02:25:31.386Z,75.74
2023-02-22T02:28:01.476Z,75.23
2023-02-22T02:30:38.375Z,76.59
2023-02-22T02:33:16.842Z,76.88
2023-02-22T02:36:08.217Z,77.79
2023-02-22T02:38:51.202Z,77.54
2023-02-22T02:41:35.516Z,76.13
2023-02-22T02:44:05.398Z,76.13
2023-02-22T02:46:39.923Z,76.54
2023-02-22T02:49:13.911Z,77.10
2023-02-22T02:51:47.376Z,76.83
2023-02-22T02:54:16.029Z,76.88
2023-02-22T02:56:43.722Z,76.66
2023-02-22T02:59:43.823Z,75.30
2023-02-22T03:02:47.496Z,75.45
2023-02-22T03:05:39.586Z,75.64
2023-02-22T03:08:18.188Z,75.78
2023-02-22T03:11:15.126Z,76.29
2023-02-22T03:14:01.365Z,76.35
2023-02-22T03:17:00.647Z,76.81
2023-02-22T03:19:37.321Z,76.34
2023-02-22T03:22:16.539Z,76.75
2023-02-22T03:25:17.263Z,77.61
2023-02-22T03:27:49.677Z,78.74
2023-02-22T03:30:27.581Z,78.87
2023-02-22T03:33:09.891Z,79.10
2023-02-22T03:35:45.334Z,79.09
2023-02-22T03:38:17.003Z,79.48
2023-02-22T03:40:49.631Z,79.40
2023-02-22T03:43:25.025Z,79.58
2023-02-22T03:45:58.172Z,79.91
2023-02-22T03:48:33.860Z,79.91
2023-02-22T03:51:04.703Z,80.01
2023-02-22T03:53:37.219Z,80.48
2023-02-22T03:56:10.506Z,80.06
2023-02-22T03:58:44.329Z,79.93
2023-02-22T04:01:13.318Z,79.85
2023-02-22T04:03:42.253Z,79.50
2023-02-22T04:06:10.281Z,79.65
2023-02-22T04:08:38.089Z,80.04
2023-02-22T04:11:06.018Z,80.24
2023-02-22T04:13:33.814Z,80.67
2023-02-22T04:16:01.647Z,80.79
2023-02-22T04:18:29.432Z,80.62
2023-02-22T04:20:56.976Z,80.99
2023-02-22T04:23:44.591Z,80.97
2023-02-22T04:26:12.872Z,81.54
2023-02-22T04:28:40.360Z,81.67
2023-02-22T04:31:11.585Z,81.45
2023-02-22T04:33:39.325Z,79.43
2023-02-22T04:36:07.727Z,80.09
2023-02-22T04:38:35.809Z,80.31
2023-02-22T04:41:03.392Z,80.39
2023-02-22T04:43:31.468Z,80.21
2023-02-22T04:46:21.355Z,80.20
2023-02-22T04:48:48.896Z,80.36
2023-02-22T04:51:18.059Z,80.64
2023-02-22T04:53:59.415Z,80.64
2023-02-22T04:56:27.064Z,81.20
2023-02-22T04:58:54.319Z,80.96
2023-02-22T05:01:21.980Z,81.43
2023-02-22T05:03:49.315Z,84.07
2023-02-22T05:06:17.940Z,84.14
2023-02-22T05:08:45.167Z,83.37
2023-02-22T05:11:12.705Z,83.06
2023-02-22T05:13:39.918Z,83.55
2023-02-22T05:16:07.462Z,83.73
2023-02-22T05:18:34.676Z,83.51
2023-02-22T05:21:02.260Z,82.53
2023-02-22T05:23:29.568Z,82.15
2023-02-22T05:25:57.120Z,81.18
2023-02-22T05:28:24.570Z,82.42
2023-02-22T05:30:52.226Z,82.99
2023-02-22T05:33:19.464Z,83.09
2023-02-22T05:35:47.032Z,82.93
2023-02-22T05:38:15.380Z,82.89
2023-02-22T05:40:43.494Z,83.20
2023-02-22T05:43:10.910Z,81.97
2023-02-22T05:45:38.518Z,80.81
2023-02-22T05:48:05.973Z,81.13
2023-02-22T05:50:34.418Z,80.35
2023-02-22T05:53:01.988Z,80.92
2023-02-22T05:55:29.524Z,80.56
2023-02-22T05:57:56.817Z,80.59
2023-02-22T06:00:27.931Z,80.92
2023-02-22T06:02:57.146Z,82.13
2023-02-22T06:05:25.530Z,82.85
2023-02-22T06:07:53.932Z,83.11
2023-02-22T06:10:21.465Z,84.03
2023-02-22T06:12:49.920Z,82.87
2023-02-22T06:15:19.487Z,83.85
2023-02-22T06:17:47.561Z,84.46
2023-02-22T06:20:18.200Z,84.32
2023-02-22T06:22:48.107Z,85.13
2023-02-22T06:25:19.653Z,84.79
2023-02-22T06:27:46.962Z,85.93
2023-02-22T06:30:17.110Z,86.01
2023-02-22T06:32:44.350Z,86.30
2023-02-22T06:35:11.866Z,85.78
2023-02-22T06:37:40.352Z,85.66
2023-02-22T06:40:08.536Z,85.27
2023-02-22T06:42:35.780Z,85.46
2023-02-22T06:45:03.929Z,84.82
2023-02-22T06:47:31.206Z,84.89
2023-02-22T06:50:01.060Z,85.38
2023-02-22T06:52:28.347Z,84.94
2023-02-22T06:54:55.933Z,84.89
2023-02-22T06:57:23.121Z,84.42
2023-02-22T06:59:50.632Z,84.54
2023-02-22T07:02:17.878Z,84.08
2023-02-22T07:04:45.669Z,86.42
2023-02-22T07:07:12.923Z,86.51
2023-02-22T07:09:40.436Z,87.20
2023-02-22T07:12:07.993Z,87.60
2023-02-22T07:14:35.574Z,88.60
2023-02-22T07:17:03.401Z,90.22
2023-02-22T07:19:30.929Z,90.06
2023-02-22T07:21:59.465Z,90.72
2023-02-22T07:24:30.904Z,92.15
2023-02-22T07:26:58.152Z,90.00
2023-02-22T07:29:25.664Z,89.42
2023-02-22T07:31:52.962Z,89.34
2023-02-22T07:34:20.692Z,87.67
2023-02-22T07:36:47.979Z,87.14
2023-02-22T07:39:15.646Z,90.94
2023-02-22T07:41:42.946Z,89.32
2023-02-22T07:44:22.852Z,86.79
2023-02-22T07:46:50.539Z,86.40
2023-02-22T07:49:18.543Z,84.64
2023-02-22T07:51:45.862Z,83.87
2023-02-22T07:54:13.417Z,82.26
2023-02-22T07:56:48.023Z,80.96
2023-02-22T07:59:16.542Z,80.32
2023-02-22T08:01:43.806Z,78.47
2023-02-22T08:04:11.325Z,75.82
2023-02-22T08:06:38.887Z,76.44
2023-02-22T08:09:06.478Z,75.87
2023-02-22T08:11:33.848Z,77.44
2023-02-22T08:14:01.396Z,77.46
2023-02-22T08:16:28.622Z,78.53
2023-02-22T08:18:56.244Z,75.69
2023-02-22T08:21:23.452Z,74.64
2023-02-22T08:23:54.390Z,73.36
2023-02-22T08:26:21.861Z,71.74
2023-02-22T08:28:49.707Z,71.64
2023-02-22T08:31:17.400Z,70.25
2023-02-22T08:33:48.160Z,70.76
2023-02-22T08:36:16.199Z,78.55
2023-02-22T08:38:43.828Z,76.63
2023-02-22T08:41:11.047Z,73.35
2023-02-22T08:43:38.665Z,75.96
2023-02-22T08:46:06.008Z,74.86
2023-02-22T08:48:33.620Z,80.33
2023-02-22T08:51:00.961Z,75.75
2023-02-22T08:53:28.530Z,75.85
2023-02-22T08:55:55.782Z,76.52
2023-02-22T08:58:23.360Z,76.82
2023-02-22T09:00:50.724Z,73.94
2023-02-22T09:03:18.449Z,72.66
2023-02-22T09:05:45.796Z,77.74
2023-02-22T09:08:13.511Z,81.41
2023-02-22T09:10:40.901Z,79.23
2023-02-22T09:13:08.880Z,78.34
2023-02-22T09:15:36.380Z,74.90
2023-02-22T09:18:05.771Z,71.71
2023-02-22T09:20:33.079Z,74.49
2023-02-22T09:23:02.947Z,75.39
2023-02-22T09:25:30.312Z,71.11
2023-02-22T09:27:57.855Z,68.30
2023-02-22T09:30:33.711Z,65.20
2023-02-22T09:33:10.973Z,66.80
2023-02-22T09:35:46.455Z,66.23
2023-02-22T09:38:17.082Z,64.85
2023-02-22T09:40:50.761Z,65.73
2023-02-22T09:43:41.018Z,66.73
2023-02-22T09:46:13.724Z,66.59
2023-02-22T09:48:51.128Z,67.48
2023-02-22T09:51:20.664Z,69.66
2023-02-22T09:53:52.400Z,68.26
2023-02-22T09:56:20.953Z,64.72
2023-02-22T09:59:01.310Z,65.67
2023-02-22T10:01:29.841Z,63.66
2023-02-22T10:04:08.084Z,64.27
2023-02-22T10:06:37.169Z,64.97
2023-02-22T10:09:08.091Z,63.97
2023-02-22T10:11:44.333Z,64.38
2023-02-22T10:14:58.381Z,64.58
2023-02-22T10:18:03.825Z,62.89
2023-02-22T10:20:49.967Z,64.93
2023-02-22T10:23:41.239Z,63.15
2023-02-22T10:26:12.684Z,62.75
2023-02-22T10:28:48.591Z,63.15
2023-02-22T10:31:38.700Z,63.33
2023-02-22T10:34:15.630Z,64.21
2023-02-22T10:36:47.923Z,66.34
2023-02-22T10:39:27.413Z,65.15
2023-02-22T10:42:06.081Z,65.80
2023-02-22T10:44:34.383Z,65.83
2023-02-22T10:47:05.312Z,68.15
2023-02-22T10:49:39.244Z,72.82
2023-02-22T10:52:15.020Z,75.23
2023-02-22T10:54:46.625Z,77.99
2023-02-22T10:57:14.395Z,78.13
2023-02-22T10:59:42.588Z,79.94
2023-02-22T11:02:16.050Z,80.02
2023-02-22T11:04:56.724Z,80.34
2023-02-22T11:07:31.095Z,83.97
2023-02-22T11:10:01.544Z,81.45
2023-02-22T11:12:33.506Z,80.33
2023-02-22T11:15:28.434Z,80.09
2023-02-22T11:17:57.861Z,78.88
2023-02-22T11:20:28.485Z,78.23
2023-02-22T11:23:00.012Z,79.09
2023-02-22T11:25:31.941Z,77.66
2023-02-22T11:28:16.378Z,75.27
2023-02-22T11:30:49.944Z,76.43
2023-02-22T11:33:17.588Z,75.20
2023-02-22T11:36:06.041Z,70.55
2023-02-22T11:38:40.516Z,72.17
2023-02-22T11:41:22.015Z,71.65
2023-02-22T11:43:51.217Z,71.41
2023-02-22T11:46:26.747Z,70.70
2023-02-22T11:49:02.275Z,69.57
2023-02-22T11:51:38.497Z,69.01
2023-02-22T11:54:40.060Z,68.62
2023-02-22T11:57:10.298Z,69.02
2023-02-22T12:00:16.517Z,70.07
2023-02-22T12:03:11.301Z,66.87
2023-02-22T12:05:59.763Z,65.80
2023-02-22T12:08:38.975Z,65.16
2023-02-22T12:11:28.766Z,61.86
2023-02-22T12:13:58.899Z,61.31
2023-02-22T12:16:49.462Z,61.46
2023-02-22T12:19:27.017Z,60.56
2023-02-22T12:22:03.725Z,59.62
2023-02-22T12:24:44.490Z,58.00
2023-02-22T12:27:18.770Z,57.74
2023-02-22T12:29:57.826Z,58.55
2023-02-22T12:32:41.766Z,59.27
2023-02-22T12:35:21.790Z,60.91
2023-02-22T12:38:18.174Z,61.83
2023-02-22T12:41:08.932Z,59.99
2023-02-22T12:43:45.817Z,60.87
2023-02-22T12:46:29.857Z,62.96
2023-02-22T12:49:20.009Z,60.39
2023-02-22T12:51:47.170Z,59.07
2023-02-22T12:54:25.797Z,59.10
2023-02-22T12:56:52.969Z,57.71
2023-02-22T12:59:34.519Z,57.67
2023-02-22T13:02:15.988Z,61.17
2023-02-22T13:04:43.755Z,65.58
2023-02-22T13:07:10.888Z,65.53
2023-02-22T13:09:38.299Z,64.73
2023-02-22T13:12:14.780Z,67.88
2023-02-22T13:14:48.462Z,67.38
2023-02-22T13:17:21.169Z,67.42
2023-02-22T13:20:06.738Z,66.14
2023-02-22T13:22:47.987Z,66.55
2023-02-22T13:25:17.563Z,67.52
2023-02-22T13:27:47.778Z,66.67
2023-02-22T13:30:33.436Z,68.70
2023-02-22T13:33:32.521Z,66.79
2023-02-22T13:36:24.417Z,66.43
2023-02-22T13:39:54.647Z,65.21
2023-02-22T13:42:44.119Z,64.01
2023-02-22T13:45:27.107Z,65.46
2023-02-22T13:48:22.327Z,67.77
2023-02-22T13:50:58.418Z,69.59
2023-02-22T13:53:33.038Z,68.19
2023-02-22T13:56:01.491Z,68.63
2023-02-22T13:58:29.252Z,69.40
2023-02-22T14:00:59.225Z,69.17
2023-02-22T14:03:36.092Z,68.82
2023-02-22T14:06:08.678Z,70.31
2023-02-22T14:08:36.160Z,72.12
2023-02-22T14:11:18.761Z,74.20
2023-02-22T14:14:01.044Z,74.53
2023-02-22T14:16:32.067Z,73.97
2023-02-22T14:19:14.419Z,74.41
2023-02-22T14:22:02.312Z,74.45
2023-02-22T14:24:43.450Z,76.16
2023-02-22T14:27:11.915Z,77.86
2023-02-22T14:29:53.721Z,77.49
2023-02-22T14:32:30.610Z,78.53
2023-02-22T14:35:05.195Z,81.59
2023-02-22T14:37:38.298Z,84.17
2023-02-22T14:40:29.411Z,79.46
2023-02-22T14:43:22.779Z,78.77
2023-02-22T14:45:55.038Z,75.36
2023-02-22T14:48:29.530Z,75.85
2023-02-22T14:51:03.763Z,78.99
2023-02-22T14:53:49.272Z,76.90
2023-02-22T14:56:24.701Z,75.93
2023-02-22T14:58:58.324Z,74.48
2023-02-22T15:01:47.435Z,73.96
2023-02-22T15:04:27.674Z,75.25
2023-02-22T15:06:57.554Z,76.48
2023-02-22T15:09:30.147Z,76.70
2023-02-22T15:12:05.132Z,78.66
2023-02-22T15:14:39.166Z,81.02
2023-02-22T15:17:19.705Z,82.78
2023-02-22T15:19:50.758Z,82.85
2023-02-22T15:22:26.226Z,81.09
2023-02-22T15:25:06.462Z,80.45
2023-02-22T15:27:37.279Z,78.91
2023-02-22T15:30:29.115Z,79.14
2023-02-22T15:33:04.489Z,83.06
2023-02-22T15:35:33.938Z,79.82
2023-02-22T15:38:03.170Z,81.42
2023-02-22T15:40:33.230Z,82.38
2023-02-22T15:43:03.541Z,84.00
2023-02-22T15:45:32.509Z,83.03
2023-02-22T15:48:00.992Z,89.38
2023-02-22T15:50:34.026Z,92.63
2023-02-22T15:53:07.761Z,91.11
2023-02-22T15:55:41.579Z,88.16
2023-02-22T15:58:14.829Z,88.32
2023-02-22T16:00:45.296Z,87.59
2023-02-22T16:03:16.814Z,87.75
2023-02-22T16:05:47.556Z,87.58
2023-02-22T16:08:21.853Z,87.53
2023-02-22T16:11:13.670Z,88.30
2023-02-22T16:13:42.571Z,90.11
2023-02-22T16:16:25.133Z,87.22
2023-02-22T16:18:52.914Z,90.00
2023-02-22T16:21:23.760Z,89.47
2023-02-22T16:23:55.987Z,91.46
2023-02-22T16:26:31.802Z,89.26
2023-02-22T16:29:00.960Z,86.55
2023-02-22T16:31:39.512Z,84.94
2023-02-22T16:34:08.596Z,86.57
2023-02-22T16:36:46.290Z,86.53
2023-02-22T16:39:22.475Z,86.55
2023-02-22T16:41:51.131Z,84.76
2023-02-22T16:44:18.822Z,84.38
2023-02-22T16:46:46.090Z,84.34
2023-02-22T16:49:14.820Z,83.09
2023-02-22T16:51:49.312Z,82.97
2023-02-22T16:54:24.743Z,83.34
2023-02-22T16:56:52.829Z,82.36
2023-02-22T16:59:20.584Z,82.54
2023-02-22T17:01:47.886Z,82.13
2023-02-22T17:04:24.828Z,80.87
2023-02-22T17:06:53.194Z,84.54
2023-02-22T17:09:20.964Z,83.33
2023-02-22T17:11:51.587Z,86.26
2023-02-22T17:14:23.358Z,87.24
2023-02-22T17:16:51.155Z,85.54
2023-02-22T17:19:24.468Z,84.31
2023-02-22T17:21:51.806Z,85.00
2023-02-22T17:24:24.600Z,86.80
2023-02-22T17:26:53.258Z,86.40
2023-02-22T17:29:20.789Z,85.87
2023-02-22T17:31:49.032Z,87.44
2023-02-22T17:34:17.889Z,89.90
2023-02-22T17:36:45.106Z,87.91
2023-02-22T17:39:13.586Z,89.03
2023-02-22T17:41:41.026Z,90.94
2023-02-22T17:44:08.879Z,88.26
2023-02-22T17:46:37.482Z,86.13
2023-02-22T17:49:05.067Z,87.84
2023-02-22T17:51:32.856Z,85.00
2023-02-22T17:54:00.447Z,85.73
2023-02-22T17:56:27.701Z,88.99
2023-02-22T17:58:55.837Z,85.15
2023-02-22T18:01:28.878Z,85.37
2023-02-22T18:03:59.600Z,87.45
2023-02-22T18:06:30.157Z,89.30
2023-02-22T18:08:59.865Z,90.67
2023-02-22T18:11:32.503Z,88.76
2023-02-22T18:14:00.969Z,91.33
2023-02-22T18:16:28.377Z,90.65
2023-02-22T18:18:56.776Z,88.08
2023-02-22T18:21:26.844Z,89.10
2023-02-22T18:23:55.059Z,86.61
2023-02-22T18:26:24.085Z,89.81
2023-02-22T18:28:53.665Z,87.18
2023-02-22T18:31:22.750Z,86.88
2023-02-22T18:33:52.109Z,85.60
2023-02-22T18:36:22.958Z,86.84
2023-02-22T18:38:55.133Z,86.02
2023-02-22T18:41:27.280Z,86.87
2023-02-22T18:43:57.678Z,86.37
2023-02-22T18:46:25.586Z,87.35
2023-02-22T18:48:55.271Z,84.55
2023-02-22T18:51:23.668Z,85.42
2023-02-22T18:53:56.874Z,86.34
2023-02-22T18:56:29.689Z,84.21
2023-02-22T18:59:00.836Z,84.34
2023-02-22T19:01:29.049Z,82.33
2023-02-22T19:03:56.818Z,84.01
2023-02-22T19:06:24.131Z,83.47
2023-02-22T19:08:52.049Z,87.03
2023-02-22T19:11:22.231Z,85.59
2023-02-22T19:13:56.901Z,89.21
2023-02-22T19:16:27.247Z,86.00
2023-02-22T19:18:59.791Z,83.51
2023-02-22T19:21:29.520Z,83.30
2023-02-22T19:24:02.987Z,82.59
2023-02-22T19:26:30.886Z,84.17
2023-02-22T19:29:02.141Z,84.34
2023-02-22T19:31:33.752Z,82.95
2023-02-22T19:34:08.881Z,83.53
2023-02-22T19:36:40.986Z,81.63
2023-02-22T19:39:09.180Z,84.44
2023-02-22T19:41:36.963Z,85.42
2023-02-22T19:44:05.694Z,81.55
2023-02-22T19:46:34.110Z,79.95
2023-02-22T19:49:02.648Z,82.28
2023-02-22T19:51:31.035Z,77.81
2023-02-22T19:54:07.089Z,79.26
2023-02-22T19:56:35.768Z,76.14
2023-02-22T19:59:12.996Z,75.41
2023-02-22T20:01:44.293Z,74.63
2023-02-22T20:04:18.307Z,75.64
2023-02-22T20:06:47.236Z,73.57
2023-02-22T20:09:18.062Z,73.98
2023-02-22T20:11:46.457Z,76.96
2023-02-22T20:14:18.988Z,77.23
2023-02-22T20:16:46.452Z,77.82
2023-02-22T20:19:14.059Z,77.17
2023-02-22T20:21:41.374Z,77.94
2023-02-22T20:24:18.501Z,77.62
2023-02-22T20:26:46.799Z,77.44
2023-02-22T20:29:15.022Z,80.43
2023-02-22T20:31:43.585Z,82.20
2023-02-22T20:34:11.799Z,83.28
2023-02-22T20:36:41.475Z,82.29
2023-02-22T20:39:13.478Z,80.47
2023-02-22T20:41:42.949Z,82.50
2023-02-22T20:44:13.843Z,82.36
2023-02-22T20:46:41.975Z,84.46
2023-02-22T20:49:13.093Z,83.99
2023-02-22T20:51:41.940Z,87.70
2023-02-22T20:54:12.326Z,85.29
2023-02-22T20:56:42.858Z,85.81
2023-02-22T20:59:13.089Z,84.85
2023-02-22T21:01:42.245Z,85.51
2023-02-22T21:04:11.325Z,84.58
2023-02-22T21:06:39.463Z,83.48
2023-02-22T21:09:11.913Z,84.59
2023-02-22T21:11:40.189Z,90.15
2023-02-22T21:14:08.293Z,86.58
2023-02-22T21:16:37.169Z,86.42
2023-02-22T21:19:07.125Z,86.65
2023-02-22T21:21:35.833Z,84.94
2023-02-22T21:24:03.664Z,84.63
2023-02-22T21:26:33.739Z,84.69
2023-02-22T21:29:04.836Z,86.01
2023-02-22T21:31:34.165Z,88.59
2023-02-22T21:34:02.071Z,91.53
2023-02-22T21:36:30.384Z,92.77
2023-02-22T21:39:00.149Z,93.95
2023-02-22T21:41:31.468Z,92.87
2023-02-22T21:43:59.959Z,94.46
2023-02-22T21:46:31.659Z,91.96
2023-02-22T21:48:59.165Z,91.98
2023-02-22T21:51:31.854Z,93.87
2023-02-22T21:54:02.036Z,96.15
2023-02-22T21:56:32.436Z,93.58
2023-02-22T21:59:18.908Z,97.39
2023-02-22T22:01:51.418Z,97.57
2023-02-22T22:04:22.104Z,97.91
2023-02-22T22:06:52.074Z,99.63
2023-02-22T22:09:23.629Z,98.96
2023-02-22T22:11:58.431Z,100.00
2023-02-22T22:14:26.795Z,100.00
2023-02-22T22:16:59.648Z,99.89
2023-02-22T22:19:29.406Z,100.00
2023-02-22T22:21:58.208Z,100.00
2023-02-22T22:24:29.628Z,100.00
2023-02-22T22:26:56.895Z,100.00
2023-02-22T22:29:28.592Z,99.92
2023-02-22T22:31:56.664Z,100.00
2023-02-22T22:34:24.472Z,100.00
2023-02-22T22:36:51.714Z,100.00
2023-02-22T22:39:21.139Z,100.00
2023-02-22T22:41:48.586Z,100.00
2023-02-22T22:44:22.282Z,100.00
2023-02-22T22:46:53.710Z,100.00
2023-02-22T22:49:23.586Z,100.00
2023-02-22T22:51:51.308Z,100.00
2023-02-22T22:54:18.950Z,100.00
2023-02-22T22:56:46.621Z,100.00
2023-02-22T22:59:15.343Z,100.00
2023-02-22T23:01:44.853Z,100.00
2023-02-22T23:04:18.974Z,100.00
2023-02-22T23:06:52.451Z,100.00
2023-02-22T23:09:29.684Z,100.00
2023-02-22T23:12:09.125Z,100.00
2023-02-22T23:14:40.103Z,100.00
2023-02-22T23:17:14.274Z,100.00
2023-02-22T23:19:47.064Z,100.00
2023-02-22T23:22:14.634Z,100.00
2023-02-22T23:24:44.575Z,99.15
2023-02-22T23:27:12.406Z,100.00
2023-02-22T23:29:41.825Z,100.00
2023-02-22T23:32:09.507Z,100.00
2023-02-22T23:34:41.277Z,100.00
2023-02-22T23:37:10.337Z,100.00
2023-02-22T23:39:38.478Z,100.00
2023-02-22T23:42:08.817Z,100.00
2023-02-22T23:44:36.433Z,100.00
2023-02-22T23:47:04.431Z,100.00
2023-02-22T23:49:38.997Z,100.00
2023-02-22T23:52:08.260Z,100.00
2023-02-22T23:54:40.459Z,100.00
2023-02-22T23:57:08.990Z,100.00
2023-02-22T23:59:40.448Z,100.00
